createdAt,value
2022-09-04T00:00:08.090Z,15.10
2022-09-04T00:03:18.763Z,15.12
2022-09-04T00:06:17.052Z,15.15
2022-09-04T00:09:18.806Z,15.17
2022-09-04T00:12:10.320Z,15.19
2022-09-04T00:15:12.204Z,15.22
2022-09-04T00:18:10.374Z,15.18
2022-09-04T00:21:10.808Z,15.17
2022-09-04T00:24:06.192Z,15.19
2022-09-04T00:27:03.126Z,15.28
2022-09-04T00:30:02.068Z,15.18
2022-09-04T00:33:02.225Z,15.19
2022-09-04T00:36:00.157Z,15.20
2022-09-04T00:38:56.931Z,15.21
2022-09-04T00:42:20.421Z,15.16
2022-09-04T00:45:26.496Z,15.12
2022-09-04T00:49:11.504Z,15.10
2022-09-04T00:52:16.993Z,15.06
2022-09-04T00:55:37.359Z,14.99
2022-09-04T00:58:49.188Z,14.93
2022-09-04T01:01:39.126Z,14.92
2022-09-04T01:04:51.477Z,14.89
2022-09-04T01:07:56.731Z,14.86
2022-09-04T01:11:04.360Z,14.81
2022-09-04T01:14:13.294Z,14.75
2022-09-04T01:17:17.673Z,14.75
2022-09-04T01:20:22.673Z,14.70
2022-09-04T01:23:37.894Z,14.64
2022-09-04T01:26:41.393Z,14.62
2022-09-04T01:29:47.932Z,14.56
2022-09-04T01:33:04.338Z,14.56
2022-09-04T01:36:05.426Z,14.55
2022-09-04T01:38:58.869Z,14.52
2022-09-04T01:42:02.655Z,14.52
2022-09-04T01:44:51.868Z,14.45
2022-09-04T01:47:50.314Z,14.43
2022-09-04T01:50:45.260Z,14.45
2022-09-04T01:53:42.055Z,14.45
2022-09-04T01:56:41.258Z,14.41
2022-09-04T01:59:44.986Z,14.40
2022-09-04T02:02:54.664Z,14.38
2022-09-04T02:06:01.876Z,14.39
2022-09-04T02:09:12.128Z,14.39
2022-09-04T02:12:29.246Z,14.35
2022-09-04T02:15:43.395Z,14.32
2022-09-04T02:18:48.027Z,14.31
2022-09-04T02:21:45.483Z,14.24
2022-09-04T02:24:47.885Z,14.23
2022-09-04T02:27:49.099Z,14.22
2022-09-04T02:30:54.229Z,14.11
2022-09-04T02:33:51.158Z,14.08
2022-09-04T02:36:50.912Z,14.08
2022-09-04T02:39:58.566Z,14.04
2022-09-04T02:43:12.884Z,13.99
2022-09-04T02:46:13.212Z,13.95
2022-09-04T02:49:16.114Z,13.92
2022-09-04T02:52:33.566Z,13.86
2022-09-04T02:55:45.679Z,13.84
2022-09-04T02:58:58.847Z,13.82
2022-09-04T03:01:59.388Z,13.78
2022-09-04T03:05:00.863Z,13.74
2022-09-04T03:08:01.254Z,13.74
2022-09-04T03:10:59.682Z,13.70
2022-09-04T03:14:00.479Z,13.71
2022-09-04T03:17:00.777Z,13.69
2022-09-04T03:20:00.245Z,13.69
2022-09-04T03:23:00.194Z,13.79
2022-09-04T03:26:19.374Z,13.68
2022-09-04T03:29:27.623Z,13.65
2022-09-04T03:32:29.230Z,13.77
2022-09-04T03:35:31.321Z,13.75
2022-09-04T03:38:29.705Z,13.74
2022-09-04T03:41:35.658Z,13.72
2022-09-04T03:44:41.406Z,13.72
2022-09-04T03:47:47.991Z,13.72
2022-09-04T03:50:48.604Z,13.69
2022-09-04T03:53:45.348Z,13.70
2022-09-04T03:57:10.615Z,13.69
2022-09-04T04:00:10.142Z,13.68
2022-09-04T04:03:41.947Z,13.65
2022-09-04T04:06:44.321Z,13.62
2022-09-04T04:09:54.738Z,13.62
2022-09-04T04:13:31.427Z,13.60
2022-09-04T04:16:42.475Z,13.56
2022-09-04T04:20:02.762Z,13.50
2022-09-04T04:23:25.165Z,13.43
2022-09-04T04:26:22.763Z,13.41
2022-09-04T04:29:40.702Z,13.41
2022-09-04T04:33:10.667Z,13.36
2022-09-04T04:36:15.401Z,13.31
2022-09-04T04:39:30.242Z,13.28
2022-09-04T04:42:30.172Z,13.23
2022-09-04T04:45:46.658Z,13.21
2022-09-04T04:49:26.106Z,13.18
2022-09-04T04:52:50.158Z,13.18
2022-09-04T04:55:51.508Z,13.13
2022-09-04T04:58:59.320Z,13.11
2022-09-04T05:02:07.727Z,13.03
2022-09-04T05:05:13.080Z,13.04
2022-09-04T05:08:17.389Z,13.00
2022-09-04T05:11:18.465Z,13.01
2022-09-04T05:14:27.297Z,13.07
2022-09-04T05:17:34.800Z,13.09
2022-09-04T05:20:41.827Z,13.11
2022-09-04T05:23:46.660Z,13.17
2022-09-04T05:26:53.977Z,13.30
2022-09-04T05:29:56.793Z,13.28
2022-09-04T05:33:00.140Z,13.33
2022-09-04T05:35:57.352Z,13.52
2022-09-04T05:39:09.656Z,13.53
2022-09-04T05:42:39.135Z,13.54
2022-09-04T05:45:47.781Z,13.71
2022-09-04T05:48:53.158Z,13.71
2022-09-04T05:52:33.185Z,13.72
2022-09-04T05:55:54.767Z,13.81
2022-09-04T05:59:13.737Z,13.86
2022-09-04T06:02:28.301Z,13.87
2022-09-04T06:05:32.908Z,13.97
2022-09-04T06:08:41.342Z,13.96
2022-09-04T06:11:56.720Z,13.98
2022-09-04T06:15:27.178Z,13.96
2022-09-04T06:18:43.444Z,14.05
2022-09-04T06:22:08.339Z,14.11
2022-09-04T06:25:33.967Z,14.18
2022-09-04T06:28:56.852Z,14.21
2022-09-04T06:32:14.433Z,14.27
2022-09-04T06:35:47.056Z,14.34
2022-09-04T06:38:52.971Z,14.34
2022-09-04T06:42:05.884Z,14.48
2022-09-04T06:45:21.329Z,14.55
2022-09-04T06:48:25.259Z,14.59
2022-09-04T06:51:46.381Z,14.65
2022-09-04T06:54:55.254Z,14.76
2022-09-04T06:58:24.476Z,14.94
2022-09-04T07:01:26.222Z,14.98
2022-09-04T07:04:37.100Z,15.02
2022-09-04T07:07:38.905Z,15.19
2022-09-04T07:10:34.765Z,15.30
2022-09-04T07:14:17.422Z,15.44
2022-09-04T07:17:19.174Z,15.57
2022-09-04T07:20:22.150Z,15.66
2022-09-04T07:23:28.720Z,15.73
2022-09-04T07:26:28.266Z,15.77
2022-09-04T07:29:34.672Z,15.93
2022-09-04T07:32:39.277Z,16.11
2022-09-04T07:35:38.764Z,16.23
2022-09-04T07:38:38.783Z,16.32
2022-09-04T07:41:44.188Z,16.49
2022-09-04T07:44:46.804Z,16.68
2022-09-04T07:47:45.094Z,16.87
2022-09-04T07:50:40.290Z,17.09
2022-09-04T07:53:55.922Z,17.42
2022-09-04T07:57:11.200Z,17.54
2022-09-04T08:00:09.044Z,17.65
2022-09-04T08:03:30.444Z,17.88
2022-09-04T08:06:29.453Z,18.13
2022-09-04T08:10:07.623Z,18.21
2022-09-04T08:13:33.646Z,18.40
2022-09-04T08:16:31.656Z,18.51
2022-09-04T08:19:42.949Z,18.63
2022-09-04T08:22:46.672Z,18.82
2022-09-04T08:25:55.993Z,19.05
2022-09-04T08:29:09.193Z,19.23
2022-09-04T08:32:18.271Z,19.36
2022-09-04T08:35:23.261Z,19.56
2022-09-04T08:38:39.497Z,19.83
2022-09-04T08:42:29.103Z,20.01
2022-09-04T08:46:30.011Z,20.27
2022-09-04T08:50:10.496Z,20.50
2022-09-04T08:53:41.228Z,20.65
2022-09-04T08:56:41.966Z,20.73
2022-09-04T09:00:08.451Z,21.31
2022-09-04T09:03:57.486Z,21.73
2022-09-04T09:07:42.490Z,22.25
2022-09-04T09:11:02.208Z,22.65
2022-09-04T09:14:59.540Z,23.08
2022-09-04T09:18:03.717Z,23.29
2022-09-04T09:21:02.423Z,23.41
2022-09-04T09:24:38.992Z,23.82
2022-09-04T09:28:20.080Z,24.36
2022-09-04T09:32:08.454Z,25.00
2022-09-04T09:35:57.970Z,25.51
2022-09-04T09:39:37.722Z,25.80
2022-09-04T09:43:01.889Z,26.24
2022-09-04T09:46:39.335Z,26.43
2022-09-04T09:50:06.279Z,26.43
2022-09-04T09:53:50.262Z,27.13
2022-09-04T09:57:03.424Z,27.49
2022-09-04T10:00:15.255Z,27.93
2022-09-04T10:03:49.898Z,28.29
2022-09-04T10:07:48.940Z,28.74
2022-09-04T10:11:25.718Z,29.19
2022-09-04T10:15:04.922Z,29.30
2022-09-04T10:18:26.594Z,29.35
2022-09-04T10:22:20.571Z,29.65
2022-09-04T10:25:35.160Z,30.07
2022-09-04T10:29:28.760Z,29.89
2022-09-04T10:33:09.244Z,29.74
2022-09-04T10:36:30.084Z,29.33
2022-09-04T10:39:55.184Z,29.66
2022-09-04T10:43:10.139Z,30.38
2022-09-04T10:46:08.472Z,30.64
2022-09-04T10:49:40.932Z,31.23
2022-09-04T10:52:51.596Z,31.75
2022-09-04T10:56:16.221Z,31.85
2022-09-04T10:59:32.134Z,31.93
2022-09-04T11:03:05.048Z,32.37
2022-09-04T11:06:35.890Z,32.44
2022-09-04T11:09:36.385Z,32.58
2022-09-04T11:12:52.990Z,32.92
2022-09-04T11:16:01.266Z,33.18
2022-09-04T11:19:20.978Z,33.21
2022-09-04T11:22:55.214Z,33.41
2022-09-04T11:26:18.701Z,33.23
2022-09-04T11:29:33.880Z,32.93
2022-09-04T11:33:02.981Z,33.38
2022-09-04T11:36:35.508Z,33.68
2022-09-04T11:40:04.372Z,34.02
2022-09-04T11:43:19.726Z,34.27
2022-09-04T11:46:35.553Z,33.73
2022-09-04T11:49:54.395Z,33.38
2022-09-04T11:53:24.942Z,33.13
2022-09-04T11:56:47.682Z,33.06
2022-09-04T12:00:09.921Z,33.77
2022-09-04T12:03:37.605Z,34.23
2022-09-04T12:06:43.529Z,34.59
2022-09-04T12:10:27.262Z,34.86
2022-09-04T12:14:19.655Z,35.10
2022-09-04T12:17:51.689Z,35.16
2022-09-04T12:21:48.820Z,35.01
2022-09-04T12:25:14.866Z,34.96
2022-09-04T12:28:48.293Z,35.04
2022-09-04T12:32:35.379Z,35.09
2022-09-04T12:36:14.398Z,35.22
2022-09-04T12:40:00.411Z,35.23
2022-09-04T12:43:05.886Z,35.33
2022-09-04T12:46:16.821Z,35.40
2022-09-04T12:49:44.250Z,35.55
2022-09-04T12:53:19.196Z,35.72
2022-09-04T12:56:17.004Z,35.80
2022-09-04T12:59:33.598Z,35.83
2022-09-04T13:02:46.834Z,35.94
2022-09-04T13:05:58.948Z,35.98
2022-09-04T13:09:03.953Z,35.89
2022-09-04T13:12:13.586Z,36.04
2022-09-04T13:15:22.638Z,36.14
2022-09-04T13:18:34.795Z,35.77
2022-09-04T13:21:55.321Z,35.54
2022-09-04T13:25:02.785Z,35.08
2022-09-04T13:28:17.215Z,35.14
2022-09-04T13:31:54.572Z,35.46
2022-09-04T13:35:09.613Z,35.36
2022-09-04T13:38:23.148Z,35.09
2022-09-04T13:41:42.995Z,34.93
2022-09-04T13:45:15.748Z,35.33
2022-09-04T13:48:13.081Z,35.43
2022-09-04T13:51:13.601Z,35.25
2022-09-04T13:54:10.594Z,35.07
2022-09-04T13:57:09.826Z,34.92
2022-09-04T14:00:03.935Z,34.91
2022-09-04T14:03:01.875Z,34.81
2022-09-04T14:05:52.443Z,34.70
2022-09-04T14:08:44.422Z,34.59
2022-09-04T14:12:24.805Z,34.75
2022-09-04T14:16:02.526Z,34.59
2022-09-04T14:19:15.647Z,34.22
2022-09-04T14:22:42.240Z,33.87
2022-09-04T14:25:40.613Z,33.57
2022-09-04T14:28:44.761Z,33.32
2022-09-04T14:31:49.001Z,33.23
2022-09-04T14:35:02.161Z,33.21
2022-09-04T14:38:41.205Z,33.15
2022-09-04T14:41:48.396Z,32.96
2022-09-04T14:44:59.887Z,32.73
2022-09-04T14:47:55.920Z,32.65
2022-09-04T14:50:51.969Z,32.65
2022-09-04T14:53:49.312Z,32.42
2022-09-04T14:56:47.976Z,32.22
2022-09-04T14:59:45.204Z,32.04
2022-09-04T15:02:43.774Z,31.87
2022-09-04T15:05:39.788Z,31.69
2022-09-04T15:08:38.096Z,31.49
2022-09-04T15:11:35.555Z,31.25
2022-09-04T15:14:34.558Z,31.07
2022-09-04T15:17:30.200Z,30.90
2022-09-04T15:20:25.037Z,30.66
2022-09-04T15:23:28.666Z,30.48
2022-09-04T15:26:29.387Z,30.29
2022-09-04T15:29:28.950Z,30.11
2022-09-04T15:32:24.848Z,29.89
2022-09-04T15:35:22.934Z,29.75
2022-09-04T15:38:21.270Z,29.57
2022-09-04T15:41:25.953Z,29.42
2022-09-04T15:44:29.728Z,29.25
2022-09-04T15:47:43.415Z,29.08
2022-09-04T15:50:41.306Z,28.90
2022-09-04T15:53:34.527Z,28.73
2022-09-04T15:56:36.927Z,28.57
2022-09-04T15:59:43.701Z,28.42
2022-09-04T16:02:46.396Z,28.27
2022-09-04T16:05:47.055Z,28.13
2022-09-04T16:08:47.021Z,28.01
2022-09-04T16:11:46.717Z,27.89
2022-09-04T16:14:45.379Z,27.82
2022-09-04T16:17:45.308Z,27.74
2022-09-04T16:20:40.784Z,27.67
2022-09-04T16:23:33.677Z,27.61
2022-09-04T16:26:32.346Z,27.57
2022-09-04T16:29:36.335Z,27.49
2022-09-04T16:32:31.798Z,27.41
2022-09-04T16:35:23.858Z,27.36
2022-09-04T16:38:22.162Z,27.36
2022-09-04T16:41:19.357Z,27.34
2022-09-04T16:44:26.260Z,27.32
2022-09-04T16:47:27.162Z,27.28
2022-09-04T16:50:27.287Z,27.33
2022-09-04T16:53:24.365Z,27.42
2022-09-04T16:56:36.948Z,27.53
2022-09-04T16:59:37.953Z,27.61
2022-09-04T17:02:45.030Z,27.56
2022-09-04T17:05:46.913Z,27.44
2022-09-04T17:08:44.186Z,27.31
2022-09-04T17:11:44.192Z,27.17
2022-09-04T17:14:53.495Z,27.02
2022-09-04T17:17:47.219Z,26.82
2022-09-04T17:21:59.700Z,26.65
2022-09-04T17:29:04.280Z,26.43
2022-09-04T17:29:15.234Z,26.21
2022-09-04T17:30:40.231Z,25.99
2022-09-04T17:40:38.299Z,25.60
2022-09-04T17:40:43.843Z,25.81
2022-09-04T17:40:48.848Z,25.37
2022-09-04T17:44:01.848Z,25.13
2022-09-04T17:47:08.107Z,24.91
2022-09-04T17:50:00.246Z,24.73
2022-09-04T17:52:59.803Z,24.59
2022-09-04T17:55:54.305Z,24.40
2022-09-04T17:58:53.631Z,24.21
2022-09-04T18:01:59.140Z,24.02
2022-09-04T18:04:58.090Z,23.83
2022-09-04T18:08:08.992Z,23.62
2022-09-04T18:11:09.022Z,23.43
2022-09-04T18:14:11.316Z,23.23
2022-09-04T18:17:11.659Z,23.06
2022-09-04T18:20:16.088Z,22.88
2022-09-04T18:23:52.460Z,22.67
2022-09-04T18:26:50.629Z,22.51
2022-09-04T18:32:47.206Z,22.32
2022-09-04T18:37:16.436Z,22.15
2022-09-04T18:37:23.854Z,21.98
2022-09-04T18:39:51.619Z,21.81
2022-09-04T18:50:23.024Z,21.66
2022-09-04T18:50:28.114Z,21.38
2022-09-04T18:50:48.581Z,21.51
2022-09-04T18:52:51.339Z,21.22
2022-09-04T18:55:53.113Z,21.07
2022-09-04T18:58:54.415Z,20.95
2022-09-04T19:01:50.750Z,20.82
2022-09-04T19:04:51.075Z,20.71
2022-09-04T19:07:48.140Z,20.61
2022-09-04T19:10:48.159Z,20.50
2022-09-04T19:13:46.342Z,20.40
2022-09-04T19:16:42.019Z,20.27
2022-09-04T19:19:40.975Z,20.15
2022-09-04T19:22:43.597Z,20.03
2022-09-04T19:25:41.729Z,19.94
2022-09-04T19:28:53.206Z,19.83
2022-09-04T19:31:53.510Z,19.73
2022-09-04T19:34:52.615Z,19.63
2022-09-04T19:44:25.562Z,19.54
2022-09-04T19:46:08.224Z,19.42
2022-09-04T19:46:16.780Z,19.32
2022-09-04T19:47:50.516Z,19.20
2022-09-04T19:53:19.617Z,19.13
2022-09-04T19:54:07.130Z,19.02
2022-09-04T19:57:32.380Z,18.96
2022-09-04T20:00:42.678Z,18.87
2022-09-04T20:03:46.395Z,18.77
2022-09-04T20:06:47.252Z,18.71
2022-09-04T20:09:46.677Z,18.65
2022-09-04T20:12:48.941Z,18.56
2022-09-04T20:15:55.834Z,18.50
2022-09-04T20:18:53.437Z,18.42
2022-09-04T20:21:49.212Z,18.36
2022-09-04T20:25:01.269Z,18.32
2022-09-04T20:27:58.289Z,18.23
2022-09-04T20:31:28.426Z,18.18
2022-09-04T20:34:36.038Z,18.10
2022-09-04T20:37:33.910Z,18.08
2022-09-04T20:40:35.933Z,17.99
2022-09-04T20:43:40.782Z,17.93
2022-09-04T20:52:45.669Z,17.87
2022-09-04T20:52:50.861Z,17.82
2022-09-04T20:53:24.458Z,17.75
2022-09-04T20:57:44.913Z,17.69
2022-09-04T21:03:23.005Z,17.62
2022-09-04T21:03:28.025Z,17.57
2022-09-04T21:06:32.854Z,17.51
2022-09-04T21:09:54.725Z,17.45
2022-09-04T21:13:13.815Z,17.41
2022-09-04T21:16:15.299Z,17.34
2022-09-04T21:19:42.171Z,17.30
2022-09-04T21:22:55.804Z,17.25
2022-09-04T21:26:00.096Z,17.19
2022-09-04T21:29:29.540Z,17.10
2022-09-04T21:32:48.531Z,17.06
2022-09-04T21:35:48.175Z,17.03
2022-09-04T21:39:23.949Z,16.96
2022-09-04T21:42:51.964Z,16.92
2022-09-04T21:46:07.738Z,16.85
2022-09-04T21:49:37.806Z,16.81
2022-09-04T21:52:56.871Z,16.76
2022-09-04T22:02:25.195Z,16.71
2022-09-04T22:02:46.079Z,16.62
2022-09-04T22:03:35.330Z,16.57
2022-09-04T22:10:19.562Z,16.52
2022-09-04T22:13:37.242Z,16.48
2022-09-04T22:14:03.305Z,16.43
2022-09-04T22:17:15.158Z,16.38
2022-09-04T22:20:49.114Z,16.32
2022-09-04T22:24:33.152Z,16.28
2022-09-04T22:28:07.411Z,16.23
2022-09-04T22:31:45.141Z,16.17
2022-09-04T22:35:36.500Z,16.11
2022-09-04T22:38:56.902Z,16.07
2022-09-04T22:42:34.362Z,16.02
2022-09-04T22:46:14.994Z,15.99
2022-09-04T22:49:47.342Z,15.95
2022-09-04T22:53:06.477Z,15.90
2022-09-04T22:56:23.613Z,15.87
2022-09-04T22:59:58.469Z,15.83
2022-09-04T23:03:36.219Z,15.77
2022-09-04T23:13:20.685Z,15.73
2022-09-04T23:13:49.103Z,15.66
2022-09-04T23:14:07.690Z,15.66
2022-09-04T23:17:32.854Z,15.61
2022-09-04T23:26:34.844Z,15.59
2022-09-04T23:26:57.688Z,15.53
2022-09-04T23:27:52.542Z,15.50
2022-09-04T23:30:53.218Z,15.45
2022-09-04T23:34:10.168Z,15.42
2022-09-04T23:37:32.972Z,15.36
2022-09-04T23:40:39.151Z,15.33
2022-09-04T23:44:25.797Z,15.28
2022-09-04T23:48:06.550Z,15.25
2022-09-04T23:51:05.248Z,15.23
2022-09-04T23:54:31.118Z,15.16
2022-09-04T23:57:29.568Z,15.19
